Terminal Aerodrome Forecast
Issued by NWS

Home | Current Version | Previous Version | Text Only | Print | Product List | Glossary On
Versions: 1 2 3 4 5 6 7 8 9 10 11 12 13 14 15 16
000
FTUS46 KSEW 301700
TAFCLM
TAF
KCLM 301735Z 3018/3118 27005KT P6SM SCT010 OVC070
      TEMPO 3018/3022 -RA
     FM302200 VRB03KT 5SM -RA BR SCT008 BKN020 OVC035
     FM310000 26006KT P6SM -RA BKN015 OVC040
     FM311500 26006KT P6SM VCSH SCT015 BKN045=

USA.gov is the U.S. government's official web portal to all federal, state and local government web resources and services.